Terminal Aerodrome Forecast
Issued by NWS Wichita, KS

Home | Current Version | Previous Version | Text Only | Print | Product List | Glossary On
Versions: 1 2 3 4 5 6 7 8 9 10 11 12 13 14 15
000
FTUS43 KICT 251840 AAC
TAFICT
TAF AMD
KICT 251840Z 2519/2618 18008KT P6SM SCT050 BKN150
      TEMPO 2519/2520 19025G30KT 2SM TSRA BR BKN020CB OVC050
     FM252000 19007KT 5SM -SHRA VCTS BKN010 OVC050CB
      TEMPO 2522/2524 2SM TSRA BKN003 OVC010CB
     FM260200 05005KT 6SM SHRA VCTS OVC070CB
     FM260400 36007KT 4SM -SHRA BR OVC008=

USA.gov is the U.S. government's official web portal to all federal, state and local government web resources and services.